Univ of Ark at Fayetteville, Arkansas
Current Conditions -  °F | °C
As of 6:53 PM on Friday 24 Oct 2014 (Local Time) from KFYV Reporting Station
Clear Clear  
Wind Chill: 64°   Ceiling: Unl
Heat Index: 64°   Visibility: 10mi
Dew Point: 59°   Wind: 3mph
Humidity: 84%   Direction: 180°S
Pressure: 30.08"   Gusts: NA
Location:  35.9902°N, 94.083°W
Report Text: KFYV 242353Z AUTO 18003KT 10SM CLR 18/15 A3008 RMK AO2 SLP183 T01780150 10233 20178 53001
Loading
Personal Weather Stations






























Interactive Weather Map
Tropical Storm Tracking
New forecast layout! Learn more

10-Day Weather Forecast

Advertisements
Track Severe Weather on mobile